< < Back
Terminal Aerodrome Forecast


Current Version              Previous Versions:   1  2  3  4  5  6  7  8  9  

Terminal Aerodrome Forecast

489
FTUS44 KBMX 272110 AAB
TAFANB
TAF AMD
KANB 272110Z 2721/2818 VRB10G20KT 2SM -SHRA VCTS BKN050CB BKN250
     FM272200 30003KT P6SM SCT100 BKN250
     FM280300 00000KT P6SM SKC
      TEMPO 2809/2812 5SM BR=

Latest METAR

162
SAUS70 KWBC 280800 RRJ
MTRANB
METAR KANB 280753Z AUTO 00000KT 7SM CLR 24/23 A2997 RMK AO2 SLP137
T02390228


USA.gov is the U.S. government's official web portal to all federal, state and local government web resources and services.